sensor_id;sensor_type;location;lat;lon;timestamp;P1;durP1;ratioP1;P2;durP2;ratioP2
35243;SDS011;37916;52.160;21.066;2024-02-14T00:06:01;13.63;;;6.07;;
35243;SDS011;37916;52.160;21.066;2024-02-14T00:16:04;18.15;;;8.68;;
35243;SDS011;37916;52.160;21.066;2024-02-14T00:26:06;14.63;;;6.60;;
35243;SDS011;37916;52.160;21.066;2024-02-14T00:36:07;13.25;;;5.68;;
35243;SDS011;37916;52.160;21.066;2024-02-14T00:46:08;10.38;;;5.63;;
35243;SDS011;37916;52.160;21.066;2024-02-14T00:56:09;10.43;;;5.43;;
35243;SDS011;37916;52.160;21.066;2024-02-14T01:06:10;12.48;;;5.38;;
35243;SDS011;37916;52.160;21.066;2024-02-14T01:16:11;14.45;;;6.22;;
35243;SDS011;37916;52.160;21.066;2024-02-14T01:26:12;15.25;;;6.55;;
35243;SDS011;37916;52.160;21.066;2024-02-14T01:36:14;11.82;;;6.53;;
35243;SDS011;37916;52.160;21.066;2024-02-14T01:46:16;14.65;;;6.97;;
35243;SDS011;37916;52.160;21.066;2024-02-14T01:56:18;12.75;;;6.90;;
35243;SDS011;37916;52.160;21.066;2024-02-14T02:06:19;18.73;;;7.78;;
35243;SDS011;37916;52.160;21.066;2024-02-14T02:16:20;14.73;;;7.85;;
35243;SDS011;37916;52.160;21.066;2024-02-14T02:26:21;18.67;;;8.93;;
35243;SDS011;37916;52.160;21.066;2024-02-14T02:36:23;18.23;;;9.20;;
35243;SDS011;37916;52.160;21.066;2024-02-14T02:46:24;17.63;;;9.55;;
35243;SDS011;37916;52.160;21.066;2024-02-14T02:56:25;19.48;;;8.95;;
35243;SDS011;37916;52.160;21.066;2024-02-14T03:06:27;19.33;;;10.20;;
35243;SDS011;37916;52.160;21.066;2024-02-14T03:16:29;22.63;;;10.77;;
35243;SDS011;37916;52.160;21.066;2024-02-14T03:26:31;24.38;;;11.27;;
35243;SDS011;37916;52.160;21.066;2024-02-14T03:36:33;23.67;;;11.65;;
35243;SDS011;37916;52.160;21.066;2024-02-14T03:46:37;22.92;;;10.73;;
35243;SDS011;37916;52.160;21.066;2024-02-14T03:56:38;24.73;;;10.93;;
35243;SDS011;37916;52.160;21.066;2024-02-14T04:06:40;21.05;;;10.23;;
35243;SDS011;37916;52.160;21.066;2024-02-14T04:16:44;23.30;;;10.60;;
35243;SDS011;37916;52.160;21.066;2024-02-14T04:26:45;20.67;;;10.00;;
35243;SDS011;37916;52.160;21.066;2024-02-14T04:36:49;20.07;;;11.17;;
35243;SDS011;37916;52.160;21.066;2024-02-14T04:46:50;16.92;;;8.93;;
35243;SDS011;37916;52.160;21.066;2024-02-14T04:56:51;16.17;;;8.18;;
35243;SDS011;37916;52.160;21.066;2024-02-14T05:06:52;15.85;;;8.30;;
35243;SDS011;37916;52.160;21.066;2024-02-14T05:16:53;17.73;;;8.63;;
35243;SDS011;37916;52.160;21.066;2024-02-14T05:26:54;20.00;;;8.77;;
35243;SDS011;37916;52.160;21.066;2024-02-14T05:36:55;20.40;;;9.18;;
35243;SDS011;37916;52.160;21.066;2024-02-14T05:46:56;19.25;;;8.90;;
35243;SDS011;37916;52.160;21.066;2024-02-14T05:56:57;16.40;;;9.07;;
35243;SDS011;37916;52.160;21.066;2024-02-14T06:06:58;19.63;;;9.50;;
35243;SDS011;37916;52.160;21.066;2024-02-14T06:16:59;18.35;;;9.30;;
35243;SDS011;37916;52.160;21.066;2024-02-14T06:27:03;18.50;;;9.48;;
35243;SDS011;37916;52.160;21.066;2024-02-14T06:37:04;20.35;;;11.18;;
35243;SDS011;37916;52.160;21.066;2024-02-14T06:47:05;19.67;;;9.32;;
35243;SDS011;37916;52.160;21.066;2024-02-14T06:57:07;18.67;;;8.70;;
35243;SDS011;37916;52.160;21.066;2024-02-14T07:07:08;19.13;;;9.13;;
35243;SDS011;37916;52.160;21.066;2024-02-14T07:17:09;16.55;;;7.90;;
35243;SDS011;37916;52.160;21.066;2024-02-14T07:27:10;15.90;;;7.95;;
35243;SDS011;37916;52.160;21.066;2024-02-14T07:37:11;16.05;;;7.90;;
35243;SDS011;37916;52.160;21.066;2024-02-14T07:47:12;15.40;;;7.60;;
35243;SDS011;37916;52.160;21.066;2024-02-14T07:57:13;16.73;;;8.48;;
35243;SDS011;37916;52.160;21.066;2024-02-14T08:07:14;11.63;;;6.68;;
35243;SDS011;37916;52.160;21.066;2024-02-14T08:17:15;12.60;;;7.60;;
35243;SDS011;37916;52.160;21.066;2024-02-14T08:27:17;13.20;;;6.88;;
35243;SDS011;37916;52.160;21.066;2024-02-14T08:37:18;14.75;;;5.70;;
35243;SDS011;37916;52.160;21.066;2024-02-14T08:47:19;13.25;;;5.80;;
35243;SDS011;37916;52.160;21.066;2024-02-14T08:57:20;17.27;;;6.35;;
35243;SDS011;37916;52.160;21.066;2024-02-14T09:07:21;10.00;;;4.90;;
35243;SDS011;37916;52.160;21.066;2024-02-14T09:17:22;7.97;;;4.47;;
35243;SDS011;37916;52.160;21.066;2024-02-14T09:27:23;8.00;;;4.53;;
35243;SDS011;37916;52.160;21.066;2024-02-14T09:37:24;5.20;;;2.72;;
35243;SDS011;37916;52.160;21.066;2024-02-14T09:47:25;13.90;;;3.75;;
35243;SDS011;37916;52.160;21.066;2024-02-14T10:07:30;4.43;;;2.13;;
35243;SDS011;37916;52.160;21.066;2024-02-14T10:17:34;6.63;;;2.13;;
35243;SDS011;37916;52.160;21.066;2024-02-14T10:37:38;5.05;;;2.00;;
35243;SDS011;37916;52.160;21.066;2024-02-14T10:47:40;8.85;;;2.45;;
35243;SDS011;37916;52.160;21.066;2024-02-14T10:57:44;4.43;;;1.67;;
35243;SDS011;37916;52.160;21.066;2024-02-14T11:07:46;4.00;;;1.75;;
35243;SDS011;37916;52.160;21.066;2024-02-14T11:17:48;6.80;;;1.55;;
35243;SDS011;37916;52.160;21.066;2024-02-14T11:27:52;9.07;;;1.60;;
35243;SDS011;37916;52.160;21.066;2024-02-14T11:37:56;3.42;;;1.60;;
35243;SDS011;37916;52.160;21.066;2024-02-14T11:48:03;4.47;;;1.50;;
35243;SDS011;37916;52.160;21.066;2024-02-14T11:58:08;6.10;;;2.03;;
35243;SDS011;37916;52.160;21.066;2024-02-14T12:08:16;4.40;;;1.38;;
35243;SDS011;37916;52.160;21.066;2024-02-14T12:18:20;4.57;;;1.35;;
35243;SDS011;37916;52.160;21.066;2024-02-14T12:28:22;3.60;;;1.20;;
35243;SDS011;37916;52.160;21.066;2024-02-14T12:38:24;5.97;;;1.63;;
35243;SDS011;37916;52.160;21.066;2024-02-14T12:48:25;3.75;;;1.60;;
35243;SDS011;37916;52.160;21.066;2024-02-14T12:58:27;4.82;;;1.63;;
35243;SDS011;37916;52.160;21.066;2024-02-14T13:08:28;6.45;;;2.03;;
35243;SDS011;37916;52.160;21.066;2024-02-14T13:18:29;4.50;;;1.33;;
35243;SDS011;37916;52.160;21.066;2024-02-14T13:28:34;3.13;;;1.60;;
35243;SDS011;37916;52.160;21.066;2024-02-14T13:48:36;5.07;;;1.40;;
35243;SDS011;37916;52.160;21.066;2024-02-14T13:58:38;4.70;;;1.27;;
35243;SDS011;37916;52.160;21.066;2024-02-14T14:08:39;6.55;;;1.42;;
35243;SDS011;37916;52.160;21.066;2024-02-14T14:18:40;3.67;;;1.75;;
35243;SDS011;37916;52.160;21.066;2024-02-14T14:28:43;4.28;;;1.45;;
35243;SDS011;37916;52.160;21.066;2024-02-14T14:38:45;4.67;;;2.03;;
35243;SDS011;37916;52.160;21.066;2024-02-14T14:48:47;9.88;;;1.95;;
35243;SDS011;37916;52.160;21.066;2024-02-14T14:58:48;5.45;;;2.25;;
35243;SDS011;37916;52.160;21.066;2024-02-14T15:08:49;7.47;;;1.90;;
35243;SDS011;37916;52.160;21.066;2024-02-14T15:18:50;8.20;;;1.80;;
35243;SDS011;37916;52.160;21.066;2024-02-14T15:28:54;5.57;;;1.60;;
35243;SDS011;37916;52.160;21.066;2024-02-14T15:39:17;8.53;;;2.47;;
35243;SDS011;37916;52.160;21.066;2024-02-14T15:49:18;7.85;;;2.20;;
35243;SDS011;37916;52.160;21.066;2024-02-14T15:59:20;6.72;;;2.10;;
35243;SDS011;37916;52.160;21.066;2024-02-14T16:09:21;7.82;;;1.83;;
35243;SDS011;37916;52.160;21.066;2024-02-14T16:19:26;8.70;;;2.55;;
35243;SDS011;37916;52.160;21.066;2024-02-14T16:29:27;8.75;;;2.92;;
35243;SDS011;37916;52.160;21.066;2024-02-14T16:39:31;9.00;;;3.43;;
35243;SDS011;37916;52.160;21.066;2024-02-14T16:49:32;8.95;;;3.88;;
35243;SDS011;37916;52.160;21.066;2024-02-14T16:59:35;9.25;;;2.95;;
35243;SDS011;37916;52.160;21.066;2024-02-14T17:19:38;8.35;;;3.78;;
35243;SDS011;37916;52.160;21.066;2024-02-14T17:29:39;9.57;;;4.60;;
35243;SDS011;37916;52.160;21.066;2024-02-14T17:39:40;15.02;;;5.47;;
35243;SDS011;37916;52.160;21.066;2024-02-14T17:49:42;13.93;;;5.97;;
35243;SDS011;37916;52.160;21.066;2024-02-14T17:59:43;12.30;;;6.00;;
35243;SDS011;37916;52.160;21.066;2024-02-14T18:09:45;16.52;;;7.60;;
35243;SDS011;37916;52.160;21.066;2024-02-14T18:19:46;19.30;;;8.98;;
35243;SDS011;37916;52.160;21.066;2024-02-14T18:29:47;20.35;;;8.93;;
35243;SDS011;37916;52.160;21.066;2024-02-14T18:39:48;17.48;;;6.40;;
35243;SDS011;37916;52.160;21.066;2024-02-14T18:49:57;12.88;;;6.40;;
35243;SDS011;37916;52.160;21.066;2024-02-14T18:59:58;15.23;;;6.82;;
35243;SDS011;37916;52.160;21.066;2024-02-14T19:09:59;16.58;;;7.15;;
35243;SDS011;37916;52.160;21.066;2024-02-14T19:20:01;13.65;;;6.75;;
35243;SDS011;37916;52.160;21.066;2024-02-14T19:30:10;13.50;;;7.47;;
35243;SDS011;37916;52.160;21.066;2024-02-14T19:40:14;17.40;;;7.37;;
35243;SDS011;37916;52.160;21.066;2024-02-14T20:00:24;13.65;;;6.68;;
35243;SDS011;37916;52.160;21.066;2024-02-14T20:10:25;12.50;;;6.47;;
35243;SDS011;37916;52.160;21.066;2024-02-14T20:20:26;20.10;;;6.00;;
35243;SDS011;37916;52.160;21.066;2024-02-14T20:30:27;10.75;;;5.80;;
35243;SDS011;37916;52.160;21.066;2024-02-14T20:40:29;16.25;;;6.10;;
35243;SDS011;37916;52.160;21.066;2024-02-14T20:50:31;14.35;;;5.63;;
35243;SDS011;37916;52.160;21.066;2024-02-14T21:00:33;10.77;;;5.20;;
35243;SDS011;37916;52.160;21.066;2024-02-14T21:10:34;10.70;;;5.47;;
35243;SDS011;37916;52.160;21.066;2024-02-14T21:20:35;10.63;;;5.28;;
35243;SDS011;37916;52.160;21.066;2024-02-14T21:30:37;11.18;;;4.95;;
35243;SDS011;37916;52.160;21.066;2024-02-14T21:40:38;10.65;;;4.68;;
35243;SDS011;37916;52.160;21.066;2024-02-14T21:50:39;9.43;;;4.47;;
35243;SDS011;37916;52.160;21.066;2024-02-14T22:00:41;9.90;;;4.85;;
35243;SDS011;37916;52.160;21.066;2024-02-14T22:10:42;21.00;;;5.60;;
35243;SDS011;37916;52.160;21.066;2024-02-14T22:20:43;11.65;;;4.78;;
35243;SDS011;37916;52.160;21.066;2024-02-14T22:30:44;9.77;;;4.30;;
35243;SDS011;37916;52.160;21.066;2024-02-14T22:40:46;8.45;;;5.18;;
35243;SDS011;37916;52.160;21.066;2024-02-14T22:50:47;11.25;;;4.78;;
35243;SDS011;37916;52.160;21.066;2024-02-14T23:00:48;13.73;;;5.53;;
35243;SDS011;37916;52.160;21.066;2024-02-14T23:10:49;9.20;;;4.13;;
35243;SDS011;37916;52.160;21.066;2024-02-14T23:20:50;11.15;;;4.78;;
35243;SDS011;37916;52.160;21.066;2024-02-14T23:30:51;10.63;;;4.82;;
35243;SDS011;37916;52.160;21.066;2024-02-14T23:40:53;10.90;;;5.75;;
35243;SDS011;37916;52.160;21.066;2024-02-14T23:50:55;11.27;;;4.43;;
